Time;durP1;ratioP1;P1;durP2;ratioP2;P2;SDS_P1;SDS_P2;PMS_P1;PMS_P2;Temp;Humidity;BMP_temperature;BMP_pressure;BME280_temperature;BME280_humidity;BME280_pressure;Samples;Min_cycle;Max_cycle;Signal;HPM_P1;HPM_P2
2021/08/19 00:01:24;;;;;;;13.82;7.45;;;20.00;99.90;;;;;;5073518;28;20021;-81
2021/08/19 00:03:50;;;;;;;13.25;6.75;;;19.90;99.90;;;;;;5068579;28;20052;-81
2021/08/19 00:06:17;;;;;;;13.52;6.45;;;20.00;99.90;;;;;;5068747;28;20479;-79
2021/08/19 00:08:43;;;;;;;14.68;6.95;;;19.90;99.90;;;;;;5069835;28;20115;-79
2021/08/19 00:11:11;;;;;;;12.73;7.00;;;19.90;99.90;;;;;;5058926;28;20155;-82
2021/08/19 00:13:37;;;;;;;11.75;7.43;;;20.00;99.90;;;;;;5065932;28;20024;-82
2021/08/19 00:16:03;;;;;;;9.07;6.35;;;20.00;99.90;;;;;;5069362;28;20472;-82
2021/08/19 00:18:29;;;;;;;11.88;6.80;;;20.00;99.90;;;;;;5051328;28;20031;-80
2021/08/19 00:20:55;;;;;;;11.55;6.20;;;20.10;99.90;;;;;;5068451;28;20029;-82
2021/08/19 00:23:21;;;;;;;11.00;6.47;;;20.00;99.90;;;;;;5054634;28;20036;-81
2021/08/19 00:25:47;;;;;;;13.38;6.72;;;19.90;99.90;;;;;;5072249;28;20099;-82
2021/08/19 00:28:14;;;;;;;11.38;7.03;;;20.00;99.90;;;;;;5066903;28;20054;-80
2021/08/19 00:30:40;;;;;;;7.88;6.28;;;20.00;99.90;;;;;;5067606;28;20477;-79
2021/08/19 00:33:06;;;;;;;12.18;7.57;;;20.00;99.90;;;;;;5070087;28;20056;-81
2021/08/19 00:35:31;;;;;;;12.82;7.28;;;19.90;99.90;;;;;;5070709;28;20032;-78
2021/08/19 00:37:57;;;;;;;14.30;7.07;;;20.00;99.90;;;;;;5051560;28;20058;-81
2021/08/19 00:40:24;;;;;;;14.27;7.47;;;19.90;99.90;;;;;;5054039;28;20020;-82
2021/08/19 00:42:51;;;;;;;11.32;6.60;;;19.90;99.90;;;;;;5062682;28;20374;-83
2021/08/19 00:45:20;;;;;;;15.55;7.32;;;19.90;99.90;;;;;;5065160;28;20021;-81
2021/08/19 00:47:47;;;;;;;10.27;6.97;;;20.00;99.90;;;;;;5058316;28;20114;-75
2021/08/19 00:50:13;;;;;;;14.98;8.35;;;20.00;99.90;;;;;;5064926;28;20032;-75
2021/08/19 00:52:41;;;;;;;13.48;7.43;;;20.00;99.90;;;;;;5067365;28;20043;-75
2021/08/19 00:55:08;;;;;;;17.13;8.40;;;19.90;99.90;;;;;;5069098;28;20027;-75
2021/08/19 00:57:39;;;;;;;14.05;9.50;;;19.90;99.90;;;;;;5058734;28;20570;-78
2021/08/19 01:00:06;;;;;;;12.23;7.63;;;20.00;99.90;;;;;;5053694;28;20024;-76
2021/08/19 01:02:31;;;;;;;20.40;7.40;;;19.90;99.90;;;;;;5069740;28;20024;-78
2021/08/19 01:04:57;;;;;;;13.35;8.23;;;20.00;99.90;;;;;;5067105;28;20032;-84
2021/08/19 01:07:23;;;;;;;15.98;8.85;;;19.90;99.90;;;;;;5050628;28;20025;-83
2021/08/19 01:09:48;;;;;;;15.80;8.40;;;19.90;99.90;;;;;;5064365;28;20659;-83
2021/08/19 01:12:16;;;;;;;12.73;7.95;;;19.90;99.90;;;;;;5064883;28;20381;-77
2021/08/19 01:14:44;;;;;;;13.23;8.18;;;19.90;99.90;;;;;;5063984;28;20422;-80
2021/08/19 01:17:14;;;;;;;14.70;8.40;;;19.90;99.90;;;;;;5063401;28;20477;-74
2021/08/19 01:19:41;;;;;;;19.45;8.20;;;19.80;99.90;;;;;;5068098;28;20024;-74
2021/08/19 01:22:06;;;;;;;12.93;8.02;;;19.80;99.90;;;;;;5060950;28;20016;-75
2021/08/19 01:24:32;;;;;;;15.35;8.90;;;19.80;99.90;;;;;;5066334;28;20384;-83
2021/08/19 01:26:59;;;;;;;12.68;7.60;;;19.80;99.90;;;;;;5072453;28;20013;-83
2021/08/19 01:29:25;;;;;;;14.02;8.10;;;19.90;99.90;;;;;;5058000;28;20029;-82
2021/08/19 01:32:03;;;;;;;15.70;8.05;;;19.90;99.90;;;;;;5066881;28;20499;-80
2021/08/19 01:34:30;;;;;;;12.98;7.70;;;19.80;99.90;;;;;;5066832;28;20020;-81
2021/08/19 01:36:58;;;;;;;13.00;7.55;;;19.80;99.90;;;;;;5061321;28;20123;-83
2021/08/19 01:39:24;;;;;;;16.55;7.95;;;19.80;99.90;;;;;;5063644;28;20025;-82
2021/08/19 01:41:50;;;;;;;15.00;7.90;;;19.80;99.90;;;;;;5050967;28;20029;-75
2021/08/19 01:44:19;;;;;;;16.23;7.80;;;19.90;99.90;;;;;;5065390;28;20082;-82
2021/08/19 01:46:53;;;;;;;14.15;7.60;;;19.80;99.90;;;;;;5067946;28;20074;-76
2021/08/19 01:49:19;;;;;;;14.50;8.25;;;19.70;99.90;;;;;;5053645;28;20024;-75
2021/08/19 01:51:45;;;;;;;15.05;7.38;;;19.70;99.90;;;;;;5062947;28;20048;-76
2021/08/19 01:54:11;;;;;;;13.07;7.22;;;19.70;99.90;;;;;;5065694;28;20067;-74
2021/08/19 01:56:37;;;;;;;15.07;8.65;;;19.60;99.90;;;;;;5062340;28;20108;-73
2021/08/19 01:59:02;;;;;;;17.20;9.00;;;19.50;99.90;;;;;;5066206;28;20052;-74
2021/08/19 02:01:28;;;;;;;12.93;7.85;;;19.60;99.90;;;;;;5059887;28;20082;-73
2021/08/19 02:03:55;;;;;;;15.23;8.45;;;19.50;99.90;;;;;;5065470;28;20027;-81
2021/08/19 02:06:21;;;;;;;13.80;8.25;;;19.60;99.90;;;;;;5066235;28;20029;-81
2021/08/19 02:08:47;;;;;;;14.35;9.20;;;19.60;99.90;;;;;;5065077;28;20044;-76
2021/08/19 02:11:14;;;;;;;22.05;10.48;;;19.60;99.90;;;;;;5053963;28;20412;-80
2021/08/19 02:13:40;;;;;;;16.27;10.70;;;19.60;99.90;;;;;;5058008;28;20052;-79
2021/08/19 02:16:06;;;;;;;19.90;10.35;;;19.60;99.90;;;;;;5065329;28;20024;-77
2021/08/19 02:18:31;;;;;;;18.85;10.30;;;19.60;99.90;;;;;;5070021;28;20036;-80
2021/08/19 02:20:57;;;;;;;15.05;10.43;;;19.50;99.90;;;;;;5069178;28;20024;-76
2021/08/19 02:23:23;;;;;;;17.00;9.52;;;19.50;99.90;;;;;;5066881;28;20035;-79
2021/08/19 02:25:49;;;;;;;14.18;10.25;;;19.60;99.90;;;;;;5064708;28;20111;-76
2021/08/19 02:28:16;;;;;;;12.88;9.50;;;19.60;99.90;;;;;;5068560;28;20031;-79
2021/08/19 02:30:41;;;;;;;20.80;9.20;;;19.50;99.90;;;;;;5060671;28;20060;-78
2021/08/19 02:33:08;;;;;;;15.32;9.20;;;19.50;99.90;;;;;;5062263;28;20070;-80
2021/08/19 02:35:34;;;;;;;15.23;9.90;;;19.60;99.90;;;;;;5065026;28;20035;-77
2021/08/19 02:38:01;;;;;;;17.63;8.57;;;19.50;99.90;;;;;;5068904;28;20115;-78
2021/08/19 02:40:29;;;;;;;15.85;9.73;;;19.50;99.90;;;;;;5067662;28;20020;-77
2021/08/19 02:42:55;;;;;;;15.93;9.82;;;19.60;99.90;;;;;;5061437;28;20603;-79
2021/08/19 02:45:21;;;;;;;19.33;9.43;;;19.50;99.90;;;;;;5063335;28;20065;-74
2021/08/19 02:47:47;;;;;;;16.27;9.90;;;19.50;99.90;;;;;;5066037;28;20082;-79
2021/08/19 02:50:14;;;;;;;11.05;7.97;;;19.50;99.90;;;;;;5064219;28;20032;-76
2021/08/19 02:52:39;;;;;;;14.85;8.32;;;19.60;99.90;;;;;;5071085;28;20029;-78
2021/08/19 02:55:06;;;;;;;14.27;8.73;;;19.60;99.90;;;;;;5075709;28;20020;-79
2021/08/19 02:57:32;;;;;;;11.82;8.23;;;19.60;99.90;;;;;;5060583;28;20035;-75
2021/08/19 02:59:58;;;;;;;14.45;8.70;;;19.60;99.90;;;;;;5065636;28;20381;-77
2021/08/19 03:02:24;;;;;;;13.20;8.98;;;19.40;99.90;;;;;;5046125;28;20036;-79
2021/08/19 03:04:49;;;;;;;16.60;8.40;;;19.50;99.90;;;;;;5071271;28;20042;-73
2021/08/19 03:07:15;;;;;;;17.55;9.23;;;19.50;99.90;;;;;;5070462;28;20544;-80
2021/08/19 03:09:41;;;;;;;13.65;8.27;;;19.60;99.90;;;;;;5056982;28;20040;-75
2021/08/19 03:12:08;;;;;;;16.25;8.88;;;19.40;99.90;;;;;;5073100;28;20044;-78
2021/08/19 03:14:34;;;;;;;16.40;8.57;;;19.50;99.90;;;;;;5064752;28;20097;-78
2021/08/19 03:17:00;;;;;;;11.48;7.93;;;19.50;99.90;;;;;;5064915;28;20024;-76
2021/08/19 03:19:26;;;;;;;12.98;9.07;;;19.50;99.90;;;;;;5071943;28;20033;-81
2021/08/19 03:21:51;;;;;;;14.98;8.07;;;19.50;99.90;;;;;;5046608;28;20048;-78
2021/08/19 03:24:17;;;;;;;14.02;7.90;;;19.50;99.90;;;;;;5068994;28;20154;-80
2021/08/19 03:26:43;;;;;;;14.88;7.90;;;19.50;99.90;;;;;;5054272;28;20119;-78
2021/08/19 03:29:09;;;;;;;16.63;8.20;;;19.50;99.90;;;;;;5068448;28;20020;-80
2021/08/19 03:31:35;;;;;;;15.48;8.13;;;19.50;99.90;;;;;;5068604;28;20110;-82
2021/08/19 03:34:01;;;;;;;14.05;8.15;;;19.50;99.90;;;;;;5068381;28;20471;-82
2021/08/19 03:36:26;;;;;;;12.35;7.53;;;19.50;99.90;;;;;;5066454;28;20029;-78
2021/08/19 03:38:53;;;;;;;16.83;8.70;;;19.50;99.90;;;;;;5066778;28;20391;-81
2021/08/19 03:41:19;;;;;;;14.07;7.95;;;19.50;99.90;;;;;;5069382;28;20032;-81
2021/08/19 03:43:47;;;;;;;16.45;8.18;;;19.50;99.90;;;;;;5070243;28;20025;-82
2021/08/19 03:46:14;;;;;;;17.75;8.25;;;19.40;99.90;;;;;;5051218;28;20029;-80
2021/08/19 03:48:41;;;;;;;14.57;9.00;;;19.40;99.90;;;;;;5065723;28;20029;-80
2021/08/19 03:51:09;;;;;;;16.27;8.55;;;19.40;99.90;;;;;;5065939;28;20098;-81
2021/08/19 03:53:36;;;;;;;16.92;8.85;;;19.40;99.90;;;;;;5069302;28;20079;-80
2021/08/19 03:56:03;;;;;;;17.25;8.70;;;19.40;99.90;;;;;;5075891;28;20088;-81
2021/08/19 03:58:28;;;;;;;16.83;8.43;;;19.40;99.90;;;;;;5074037;28;20032;-80
2021/08/19 04:00:54;;;;;;;17.10;9.23;;;19.40;99.90;;;;;;5050965;28;20021;-81
2021/08/19 04:03:20;;;;;;;14.73;8.60;;;19.40;99.90;;;;;;5062559;28;20485;-81
2021/08/19 04:05:45;;;;;;;18.65;9.82;;;19.40;99.90;;;;;;5060863;28;20012;-77
2021/08/19 04:08:11;;;;;;;20.70;9.30;;;19.40;99.90;;;;;;5065673;28;20511;-80
2021/08/19 04:10:36;;;;;;;16.13;9.25;;;19.50;99.90;;;;;;5063693;28;20477;-81
2021/08/19 04:13:02;;;;;;;20.98;10.63;;;19.40;99.90;;;;;;5063370;28;20144;-80
2021/08/19 04:15:28;;;;;;;18.10;10.05;;;19.50;99.90;;;;;;5049949;28;20033;-81
2021/08/19 04:17:55;;;;;;;15.90;9.32;;;19.50;99.90;;;;;;5064628;28;20081;-80
2021/08/19 04:20:21;;;;;;;15.05;9.23;;;19.50;99.90;;;;;;5072094;28;20077;-78
2021/08/19 04:22:47;;;;;;;15.68;9.80;;;19.50;99.90;;;;;;5045496;28;20029;-75
2021/08/19 04:25:13;;;;;;;18.70;10.60;;;19.50;99.90;;;;;;5068904;28;20055;-80
2021/08/19 04:27:39;;;;;;;19.20;10.07;;;19.50;99.90;;;;;;5070640;28;20405;-77
2021/08/19 04:30:07;;;;;;;16.42;9.57;;;19.40;99.90;;;;;;5066088;28;20078;-80
2021/08/19 04:32:33;;;;;;;20.13;11.45;;;19.40;99.90;;;;;;5069428;28;20103;-80
2021/08/19 04:34:58;;;;;;;19.50;10.50;;;19.50;99.90;;;;;;5048115;28;20104;-80
2021/08/19 04:37:25;;;;;;;19.85;10.43;;;19.50;99.90;;;;;;5066400;28;20021;-80
2021/08/19 04:39:51;;;;;;;15.85;10.68;;;19.50;99.90;;;;;;5069868;28;20028;-79
2021/08/19 04:42:17;;;;;;;17.25;10.38;;;19.50;99.90;;;;;;5049469;28;20020;-80
2021/08/19 04:44:42;;;;;;;16.67;9.63;;;19.50;99.90;;;;;;5060655;28;20086;-79
2021/08/19 04:47:08;;;;;;;16.45;10.35;;;19.50;99.90;;;;;;5065529;28;20024;-80
2021/08/19 04:49:34;;;;;;;17.63;11.27;;;19.40;99.90;;;;;;5060017;28;20048;-77
2021/08/19 04:52:00;;;;;;;19.92;11.85;;;19.50;99.90;;;;;;5049464;28;20082;-80
2021/08/19 04:54:26;;;;;;;20.85;11.55;;;19.50;99.90;;;;;;5067717;28;20036;-80
2021/08/19 04:56:51;;;;;;;20.70;11.80;;;19.50;99.90;;;;;;5065670;28;20029;-80
2021/08/19 04:59:17;;;;;;;25.88;12.85;;;19.50;99.90;;;;;;5067507;28;20059;-81
2021/08/19 05:01:43;;;;;;;21.20;11.63;;;19.50;99.90;;;;;;5063918;28;20491;-81
2021/08/19 05:04:09;;;;;;;22.52;12.80;;;19.50;99.90;;;;;;5069465;28;20073;-81
2021/08/19 05:06:35;;;;;;;18.15;12.57;;;19.60;99.90;;;;;;5067519;28;20373;-80
2021/08/19 05:09:04;;;;;;;20.40;12.90;;;19.50;99.90;;;;;;5050617;28;20028;-80
2021/08/19 05:11:30;;;;;;;25.30;11.82;;;19.40;99.90;;;;;;5061767;28;20105;-82
2021/08/19 05:13:58;;;;;;;22.92;14.38;;;19.40;99.90;;;;;;5061806;28;20143;-81
2021/08/19 05:16:28;;;;;;;22.27;12.57;;;19.50;99.90;;;;;;5064356;28;20097;-81
2021/08/19 05:18:54;;;;;;;24.27;13.10;;;19.50;99.90;;;;;;5070410;28;20021;-78
2021/08/19 05:21:20;;;;;;;24.83;13.25;;;19.50;99.90;;;;;;5060808;28;20040;-81
2021/08/19 05:23:46;;;;;;;27.70;13.27;;;19.50;99.90;;;;;;5050768;28;20029;-81
2021/08/19 05:26:12;;;;;;;21.92;13.43;;;19.50;99.90;;;;;;5055200;28;20377;-81
2021/08/19 05:28:37;;;;;;;23.63;11.63;;;19.50;99.90;;;;;;5052624;28;20039;-80
2021/08/19 05:31:03;;;;;;;21.30;12.32;;;19.50;99.90;;;;;;5059683;28;20036;-81
2021/08/19 05:33:29;;;;;;;24.58;12.27;;;19.40;99.90;;;;;;5065673;28;20020;-82
2021/08/19 05:35:55;;;;;;;21.50;12.45;;;19.40;99.90;;;;;;5065206;28;20110;-81
2021/08/19 05:38:20;;;;;;;20.40;11.40;;;19.50;99.90;;;;;;5067497;28;20056;-81
2021/08/19 05:40:46;;;;;;;19.88;12.13;;;19.40;99.90;;;;;;5068079;28;20362;-80
2021/08/19 05:43:12;;;;;;;18.13;13.13;;;19.30;99.90;;;;;;5071122;28;20024;-80
2021/08/19 05:45:38;;;;;;;21.17;12.60;;;19.40;99.90;;;;;;5059144;28;20036;-81
2021/08/19 05:48:04;;;;;;;20.90;12.18;;;19.40;99.90;;;;;;5065575;28;20017;-81
2021/08/19 05:50:31;;;;;;;18.80;12.00;;;19.40;99.90;;;;;;5068823;28;20040;-81
2021/08/19 05:52:56;;;;;;;20.15;11.98;;;19.40;99.90;;;;;;5043646;28;20021;-76
2021/08/19 05:55:22;;;;;;;19.73;12.55;;;19.40;99.90;;;;;;5066530;28;20032;-82
2021/08/19 05:57:50;;;;;;;23.48;11.77;;;19.40;99.90;;;;;;5053433;28;20024;-82
2021/08/19 06:00:16;;;;;;;21.63;12.02;;;19.50;99.90;;;;;;5068144;28;20037;-81
2021/08/19 06:02:43;;;;;;;19.15;12.15;;;19.50;99.90;;;;;;5070043;28;20081;-82
2021/08/19 06:05:09;;;;;;;20.67;11.57;;;19.50;99.90;;;;;;5064754;28;20090;-81
2021/08/19 06:07:34;;;;;;;24.50;12.57;;;19.50;99.90;;;;;;5059903;28;20052;-80
2021/08/19 06:10:00;;;;;;;18.17;11.98;;;19.50;99.90;;;;;;5060560;28;20453;-81
2021/08/19 06:12:27;;;;;;;16.65;11.73;;;19.60;99.90;;;;;;5065888;28;20041;-83
2021/08/19 06:14:52;;;;;;;18.45;12.25;;;19.60;99.90;;;;;;5070490;28;20029;-81
2021/08/19 06:17:18;;;;;;;18.40;12.10;;;19.60;99.90;;;;;;5065758;28;20032;-79
2021/08/19 06:19:43;;;;;;;20.67;11.73;;;19.60;99.90;;;;;;5064421;28;20547;-80
2021/08/19 06:22:09;;;;;;;19.38;12.57;;;19.50;99.90;;;;;;5067782;28;20226;-81
2021/08/19 06:24:35;;;;;;;29.08;13.65;;;19.60;99.90;;;;;;5066997;28;20024;-77
2021/08/19 06:27:01;;;;;;;19.73;14.05;;;19.50;99.90;;;;;;5066930;28;20036;-77
2021/08/19 06:29:26;;;;;;;25.67;14.25;;;19.50;99.90;;;;;;5068307;28;20036;-75
2021/08/19 06:31:52;;;;;;;20.80;13.05;;;19.60;99.90;;;;;;5075566;28;20464;-79
2021/08/19 06:34:18;;;;;;;25.13;13.18;;;19.60;99.90;;;;;;5065747;28;20032;-81
2021/08/19 06:36:43;;;;;;;19.95;13.40;;;19.70;99.90;;;;;;5066747;28;20028;-76
2021/08/19 06:39:09;;;;;;;18.40;12.68;;;19.60;99.90;;;;;;5065460;28;20362;-81
2021/08/19 06:41:35;;;;;;;25.73;15.10;;;19.70;99.90;;;;;;5063361;28;20472;-80
2021/08/19 06:44:00;;;;;;;21.48;13.27;;;19.60;99.90;;;;;;5073090;28;20032;-81
2021/08/19 06:46:26;;;;;;;20.50;12.18;;;19.60;99.90;;;;;;5073174;28;20024;-81
2021/08/19 06:48:52;;;;;;;20.20;12.68;;;19.60;99.90;;;;;;5063903;28;20068;-79
2021/08/19 06:51:17;;;;;;;23.23;13.15;;;19.70;99.90;;;;;;5070273;28;20480;-82
2021/08/19 06:53:43;;;;;;;22.23;12.40;;;19.70;99.90;;;;;;5064376;28;20374;-81
2021/08/19 06:56:09;;;;;;;20.30;13.35;;;19.70;99.90;;;;;;5066826;28;20035;-79
2021/08/19 06:58:34;;;;;;;18.88;13.55;;;19.70;99.90;;;;;;5057579;28;20052;-81
2021/08/19 07:01:00;;;;;;;20.80;13.60;;;19.70;99.90;;;;;;5072566;28;20052;-81
2021/08/19 07:03:26;;;;;;;20.33;13.02;;;19.60;99.90;;;;;;5070024;28;20078;-81
2021/08/19 07:05:52;;;;;;;18.05;11.70;;;19.60;99.90;;;;;;5064234;28;20392;-80
2021/08/19 07:08:18;;;;;;;19.23;12.18;;;19.60;99.90;;;;;;5070480;28;20056;-79
2021/08/19 07:10:44;;;;;;;21.15;12.95;;;19.60;99.90;;;;;;5064121;28;20060;-81
2021/08/19 07:13:09;;;;;;;17.05;11.77;;;19.70;99.90;;;;;;5057671;28;20017;-80
2021/08/19 07:15:35;;;;;;;18.20;11.55;;;19.70;99.90;;;;;;5070782;28;20202;-82
2021/08/19 07:18:01;;;;;;;16.75;11.75;;;19.70;99.90;;;;;;5045217;28;20029;-77
2021/08/19 07:20:27;;;;;;;21.25;12.50;;;19.70;99.90;;;;;;5065856;28;20025;-79
2021/08/19 07:22:53;;;;;;;19.15;11.85;;;19.60;99.90;;;;;;5063826;28;20116;-79
2021/08/19 07:25:23;;;;;;;16.67;11.85;;;19.70;99.90;;;;;;5071196;28;20021;-78
2021/08/19 07:27:49;;;;;;;16.85;11.60;;;19.70;99.90;;;;;;5067768;28;20099;-76
2021/08/19 07:30:16;;;;;;;17.58;12.93;;;19.70;99.90;;;;;;5072332;28;20105;-73
2021/08/19 07:32:42;;;;;;;18.17;11.77;;;19.70;99.90;;;;;;5066585;28;20060;-75
2021/08/19 07:35:09;;;;;;;22.05;13.35;;;19.80;99.90;;;;;;5069099;28;20092;-74
2021/08/19 07:37:48;;;;;;;17.05;12.30;;;19.80;99.90;;;;;;5064291;28;20028;-73
2021/08/19 07:40:15;;;;;;;15.40;11.40;;;19.80;99.90;;;;;;5069342;28;20032;-74
2021/08/19 07:42:42;;;;;;;18.80;12.35;;;19.80;99.90;;;;;;5066693;28;20024;-74
2021/08/19 07:45:09;;;;;;;16.38;12.48;;;19.80;99.90;;;;;;5064660;28;20104;-74
2021/08/19 07:47:35;;;;;;;16.33;13.25;;;19.80;99.90;;;;;;5067269;28;20040;-73
2021/08/19 07:50:01;;;;;;;18.95;13.27;;;19.80;99.90;;;;;;5068134;28;20556;-75
2021/08/19 07:52:27;;;;;;;19.40;12.63;;;19.90;99.90;;;;;;5068896;28;20032;-74
2021/08/19 07:54:53;;;;;;;19.98;12.38;;;20.00;99.90;;;;;;5062783;28;20116;-73
2021/08/19 07:57:19;;;;;;;17.83;11.40;;;20.10;99.90;;;;;;5045463;28;20517;-74
2021/08/19 07:59:45;;;;;;;19.80;11.63;;;20.10;99.90;;;;;;5066570;28;20094;-73
2021/08/19 08:02:11;;;;;;;14.48;11.07;;;20.20;99.90;;;;;;5066662;28;20024;-73
2021/08/19 08:04:36;;;;;;;16.85;11.48;;;20.20;99.90;;;;;;5071334;28;20112;-74
2021/08/19 08:07:02;;;;;;;13.85;11.00;;;20.30;99.90;;;;;;5071576;28;20056;-73
2021/08/19 08:09:28;;;;;;;16.08;12.50;;;20.30;99.90;;;;;;5065138;28;20037;-73
2021/08/19 08:11:55;;;;;;;16.30;12.43;;;20.30;99.90;;;;;;5065342;28;20025;-79
2021/08/19 08:14:20;;;;;;;18.10;11.95;;;20.30;99.90;;;;;;5068090;28;20059;-73
2021/08/19 08:16:46;;;;;;;18.48;12.27;;;20.20;99.90;;;;;;5071622;28;20049;-73
2021/08/19 08:19:14;;;;;;;17.80;12.23;;;20.10;99.90;;;;;;5069977;28;20440;-76
2021/08/19 08:21:40;;;;;;;16.95;12.55;;;20.20;99.90;;;;;;5053969;28;20028;-74
2021/08/19 08:24:06;;;;;;;19.65;12.77;;;20.10;99.90;;;;;;5066476;28;20081;-73
2021/08/19 08:26:31;;;;;;;17.35;11.23;;;20.10;99.90;;;;;;5073363;28;20021;-75
2021/08/19 08:28:57;;;;;;;13.02;10.07;;;20.10;99.90;;;;;;5073085;28;20029;-73
2021/08/19 08:31:24;;;;;;;15.35;10.43;;;20.10;99.90;;;;;;5070834;28;20103;-73
2021/08/19 08:33:51;;;;;;;13.48;9.00;;;20.20;99.90;;;;;;5070158;28;20016;-74
2021/08/19 08:36:17;;;;;;;12.88;9.85;;;20.20;99.90;;;;;;5073392;28;20033;-75
2021/08/19 08:38:44;;;;;;;13.30;9.55;;;20.10;99.90;;;;;;5069539;28;20100;-74
2021/08/19 08:41:11;;;;;;;13.85;8.98;;;20.20;99.90;;;;;;5066641;28;20048;-74
2021/08/19 08:43:37;;;;;;;14.38;7.82;;;20.20;99.90;;;;;;5066784;28;20025;-75
2021/08/19 08:46:07;;;;;;;13.63;7.80;;;20.30;99.90;;;;;;5054771;28;20475;-75
2021/08/19 08:48:33;;;;;;;12.13;7.40;;;20.30;99.90;;;;;;5066593;28;20020;-75
2021/08/19 08:50:59;;;;;;;13.02;7.22;;;20.30;99.90;;;;;;5053086;28;20036;-74
2021/08/19 08:53:26;;;;;;;9.57;5.93;;;20.30;99.90;;;;;;5067218;28;20384;-74
2021/08/19 08:55:52;;;;;;;9.93;6.18;;;20.40;99.90;;;;;;5054240;28;20028;-74
2021/08/19 08:58:18;;;;;;;9.65;5.90;;;20.50;99.90;;;;;;5070779;28;20019;-73
2021/08/19 09:00:46;;;;;;;6.63;5.30;;;20.50;99.90;;;;;;5054454;28;20107;-76
2021/08/19 09:03:14;;;;;;;8.90;5.35;;;20.50;99.90;;;;;;5054542;28;20086;-77
2021/08/19 09:05:47;;;;;;;5.53;4.88;;;20.50;99.90;;;;;;5054661;28;20028;-73
2021/08/19 09:08:16;;;;;;;12.27;5.80;;;20.60;99.90;;;;;;5069967;28;20029;-75
2021/08/19 09:10:42;;;;;;;6.35;5.20;;;20.60;99.90;;;;;;5050591;28;20028;-74
2021/08/19 09:13:13;;;;;;;6.38;5.20;;;20.60;99.90;;;;;;5070340;28;20024;-74
2021/08/19 09:15:39;;;;;;;7.68;4.85;;;20.50;99.90;;;;;;5069345;28;20044;-74
2021/08/19 09:18:05;;;;;;;7.18;4.63;;;20.60;99.90;;;;;;5070988;28;20013;-74
2021/08/19 09:20:34;;;;;;;8.95;4.65;;;20.60;99.90;;;;;;5056818;28;20040;-73
2021/08/19 09:23:08;;;;;;;8.38;4.32;;;20.60;99.90;;;;;;5049518;28;20029;-74
2021/08/19 09:25:39;;;;;;;4.90;4.10;;;20.60;99.90;;;;;;5063240;28;20100;-73
2021/08/19 09:28:21;;;;;;;8.57;4.43;;;20.70;99.90;;;;;;5063508;28;20020;-73
2021/08/19 09:31:08;;;;;;;5.65;3.53;;;20.80;99.90;;;;;;5068358;28;20372;-75
2021/08/19 09:33:36;;;;;;;5.30;3.28;;;20.70;99.90;;;;;;5061954;28;20876;-74
2021/08/19 09:36:06;;;;;;;8.43;3.67;;;20.80;99.90;;;;;;5069494;28;20029;-73
2021/08/19 09:38:43;;;;;;;7.03;3.58;;;20.70;99.90;;;;;;5070824;28;20024;-73
2021/08/19 09:41:17;;;;;;;5.03;3.20;;;20.70;99.90;;;;;;5066682;28;20096;-81
2021/08/19 09:43:52;;;;;;;5.63;3.63;;;20.80;99.90;;;;;;5068102;28;20507;-79
2021/08/19 09:46:35;;;;;;;4.53;3.55;;;20.70;99.90;;;;;;5052293;28;20029;-80
2021/08/19 09:49:02;;;;;;;4.28;3.08;;;20.70;99.90;;;;;;5063482;28;20017;-81
2021/08/19 09:51:28;;;;;;;3.45;2.97;;;20.70;99.90;;;;;;5052447;28;20021;-84
2021/08/19 09:53:58;;;;;;;5.70;3.53;;;20.70;99.90;;;;;;5069213;28;20029;-80
2021/08/19 09:56:33;;;;;;;6.68;3.45;;;20.70;99.90;;;;;;5069903;28;20060;-80
2021/08/19 09:59:18;;;;;;;6.78;3.47;;;20.70;99.90;;;;;;5043959;28;20051;-80
2021/08/19 10:01:44;;;;;;;8.18;3.30;;;20.70;99.90;;;;;;5050026;28;20510;-80
2021/08/19 10:04:10;;;;;;;4.75;3.20;;;20.70;99.90;;;;;;5052540;28;20024;-81
2021/08/19 10:06:36;;;;;;;8.88;3.35;;;20.60;99.90;;;;;;5067425;28;20103;-82
2021/08/19 10:09:01;;;;;;;4.95;3.28;;;20.60;99.90;;;;;;5059845;28;20112;-83
2021/08/19 10:11:32;;;;;;;4.55;3.55;;;20.60;99.90;;;;;;5063043;28;20032;-83
2021/08/19 10:13:57;;;;;;;6.30;3.92;;;20.60;99.90;;;;;;5056674;28;20021;-82
2021/08/19 10:16:24;;;;;;;8.65;3.90;;;20.70;99.90;;;;;;5064291;28;20029;-83
2021/08/19 10:18:51;;;;;;;12.75;4.10;;;20.70;99.90;;;;;;5068286;28;20090;-82
2021/08/19 10:21:18;;;;;;;5.03;3.60;;;20.70;99.90;;;;;;5067768;28;20017;-83
2021/08/19 10:23:47;;;;;;;5.78;3.47;;;20.70;99.90;;;;;;5051745;28;20546;-83
2021/08/19 10:26:19;;;;;;;5.50;3.83;;;20.70;99.90;;;;;;5052479;28;20031;-79
2021/08/19 10:28:48;;;;;;;6.70;3.30;;;20.60;99.90;;;;;;5070221;28;20032;-82
2021/08/19 10:31:38;;;;;;;6.97;3.47;;;20.70;99.90;;;;;;5062074;28;20024;-82
2021/08/19 10:34:04;;;;;;;4.43;2.80;;;20.70;99.90;;;;;;5047634;28;20031;-80
2021/08/19 10:36:29;;;;;;;5.50;3.20;;;20.80;99.90;;;;;;5061438;28;20029;-76
2021/08/19 10:39:25;;;;;;;8.48;3.40;;;20.80;99.90;;;;;;5065587;28;20400;-83
2021/08/19 10:41:55;;;;;;;13.95;3.35;;;20.90;99.90;;;;;;5059232;28;20401;-73
2021/08/19 10:44:43;;;;;;;8.38;4.05;;;21.10;99.90;;;;;;5063914;28;20025;-81
2021/08/19 10:47:09;;;;;;;6.20;3.17;;;21.10;99.90;;;;;;5058181;28;20021;-82
2021/08/19 10:49:37;;;;;;;7.40;3.15;;;21.10;99.90;;;;;;5064054;28;20511;-82
2021/08/19 10:52:08;;;;;;;6.88;2.90;;;21.30;99.90;;;;;;5066333;28;20029;-82
2021/08/19 10:54:43;;;;;;;6.32;3.30;;;21.40;99.90;;;;;;5063491;28;20032;-81
2021/08/19 10:57:25;;;;;;;3.78;3.03;;;21.50;99.90;;;;;;5066879;28;20016;-81
2021/08/19 11:00:01;;;;;;;5.80;3.20;;;21.70;99.90;;;;;;5069737;28;20025;-83
2021/08/19 11:02:56;;;;;;;5.95;3.00;;;21.80;99.90;;;;;;5069164;28;20582;-82
2021/08/19 11:05:27;;;;;;;5.78;3.08;;;21.80;99.90;;;;;;5065578;28;20101;-79
2021/08/19 11:07:54;;;;;;;4.70;2.50;;;21.90;99.90;;;;;;5062454;28;20108;-81
2021/08/19 11:10:30;;;;;;;2.55;2.10;;;22.00;99.90;;;;;;5067071;28;20045;-79
2021/08/19 11:13:01;;;;;;;2.85;2.20;;;22.10;99.90;;;;;;5062502;28;20507;-80
2021/08/19 11:15:28;;;;;;;2.88;1.70;;;22.10;99.90;;;;;;5071021;28;20025;-81
2021/08/19 11:17:55;;;;;;;3.45;2.10;;;22.20;99.90;;;;;;5069352;28;20095;-81
2021/08/19 11:20:26;;;;;;;3.65;2.22;;;22.30;99.90;;;;;;5071630;28;20029;-76
2021/08/19 11:23:11;;;;;;;5.45;2.20;;;22.30;99.90;;;;;;5065092;28;20119;-82
2021/08/19 11:25:40;;;;;;;2.97;2.10;;;22.30;99.90;;;;;;5066280;28;20032;-80
2021/08/19 11:28:13;;;;;;;5.20;2.22;;;22.30;99.90;;;;;;5070508;28;20124;-81
2021/08/19 11:30:47;;;;;;;4.97;2.78;;;22.30;99.90;;;;;;5072684;28;20488;-75
2021/08/19 11:33:18;;;;;;;3.58;2.15;;;22.30;99.90;;;;;;5070237;28;20512;-76
2021/08/19 11:35:47;;;;;;;5.63;3.15;;;22.40;99.90;;;;;;5067976;28;20436;-81
2021/08/19 11:38:18;;;;;;;6.00;2.60;;;22.30;99.90;;;;;;5066392;28;20488;-82
2021/08/19 11:40:45;;;;;;;5.68;2.40;;;22.30;99.90;;;;;;5066771;28;20055;-82
2021/08/19 11:43:29;;;;;;;5.38;2.28;;;22.20;99.90;;;;;;5069856;28;20492;-79
2021/08/19 11:46:04;;;;;;;5.50;2.53;;;22.10;99.90;;;;;;5066181;28;20556;-82
2021/08/19 11:48:30;;;;;;;3.47;2.63;;;22.20;99.90;;;;;;5064615;28;20078;-82
2021/08/19 11:50:59;;;;;;;3.95;2.42;;;22.20;99.90;;;;;;5070846;28;20504;-81
2021/08/19 11:53:25;;;;;;;3.90;2.33;;;22.20;99.90;;;;;;5066975;28;20048;-82
2021/08/19 11:55:52;;;;;;;6.70;2.53;;;22.20;99.90;;;;;;5067064;28;20025;-84
2021/08/19 11:58:22;;;;;;;2.50;1.90;;;22.20;99.90;;;;;;5065469;28;20047;-82
2021/08/19 12:01:07;;;;;;;2.63;2.13;;;22.30;99.90;;;;;;5060236;28;20073;-82
2021/08/19 12:03:41;;;;;;;3.58;2.40;;;22.40;99.90;;;;;;5072233;28;20392;-80
2021/08/19 12:06:18;;;;;;;4.30;2.42;;;22.30;99.90;;;;;;5066501;28;20025;-82
2021/08/19 12:08:51;;;;;;;5.70;2.20;;;22.30;99.90;;;;;;5064083;28;20042;-86
2021/08/19 12:11:22;;;;;;;6.13;2.38;;;22.20;99.90;;;;;;5071898;28;20020;-85
2021/08/19 12:13:52;;;;;;;7.05;2.63;;;22.10;99.90;;;;;;5067401;28;20036;-85
2021/08/19 12:16:23;;;;;;;4.43;2.28;;;22.00;99.90;;;;;;5066505;28;20497;-83
2021/08/19 12:19:15;;;;;;;4.97;2.63;;;22.00;99.90;;;;;;5065800;28;20020;-76
2021/08/19 12:22:01;;;;;;;5.15;2.30;;;22.10;99.90;;;;;;5066422;28;20013;-84
2021/08/19 12:24:32;;;;;;;2.70;2.17;;;22.10;99.90;;;;;;5068471;28;20037;-83
2021/08/19 12:27:09;;;;;;;6.47;2.67;;;22.00;99.90;;;;;;5070570;28;20369;-86
2021/08/19 12:29:52;;;;;;;5.30;2.90;;;22.00;99.90;;;;;;5069585;28;20025;-79
2021/08/19 12:32:29;;;;;;;8.20;1.92;;;21.90;99.90;;;;;;5071359;28;20048;-82
2021/08/19 12:35:01;;;;;;;3.63;2.22;;;21.80;99.90;;;;;;5050579;28;20100;-84
2021/08/19 12:37:28;;;;;;;3.17;2.25;;;21.80;99.90;;;;;;5066830;28;20040;-80
2021/08/19 12:39:55;;;;;;;6.32;2.22;;;21.90;99.90;;;;;;5062255;28;20474;-85